createdAt,value
2023-02-15T00:00:44.574Z,102896.22
2023-02-15T00:03:16.879Z,102892.63
2023-02-15T00:05:45.780Z,102883.69
2023-02-15T00:08:14.875Z,102881.03
2023-02-15T00:10:42.756Z,102888.19
2023-02-15T00:13:11.792Z,102880.16
2023-02-15T00:15:39.600Z,102875.72
2023-02-15T00:18:08.857Z,102887.31
2023-02-15T00:20:36.781Z,102885.56
2023-02-15T00:23:04.504Z,102880.22
2023-02-15T00:25:32.277Z,102874.88
2023-02-15T00:28:01.855Z,102880.25
2023-02-15T00:30:31.010Z,102882.03
2023-02-15T00:32:58.788Z,102882.06
2023-02-15T00:35:26.656Z,102881.25
2023-02-15T00:37:58.089Z,102882.13
2023-02-15T00:40:28.402Z,102879.44
2023-02-15T00:42:56.118Z,102889.22
2023-02-15T00:45:23.874Z,102880.31
2023-02-15T00:47:52.993Z,102873.13
2023-02-15T00:50:22.885Z,102863.34
2023-02-15T00:52:51.617Z,102869.66
2023-02-15T00:55:19.351Z,102863.44
2023-02-15T00:57:47.241Z,102865.19
2023-02-15T01:00:18.111Z,102859.88
2023-02-15T01:02:45.916Z,102870.63
2023-02-15T01:05:15.150Z,102863.50
2023-02-15T01:07:42.865Z,102865.28
2023-02-15T01:10:10.840Z,102851.88
2023-02-15T01:12:38.564Z,102845.66
2023-02-15T01:15:06.555Z,102843.91
2023-02-15T01:17:34.348Z,102845.66
2023-02-15T01:20:05.586Z,102843.97
2023-02-15T01:22:34.682Z,102845.72
2023-02-15T01:25:05.477Z,102844.88
2023-02-15T01:27:33.281Z,102838.63
2023-02-15T01:30:01.046Z,102841.38
2023-02-15T01:32:28.814Z,102840.50
2023-02-15T01:34:56.582Z,102836.03
2023-02-15T01:37:24.262Z,102835.16
2023-02-15T01:39:54.569Z,102826.22
2023-02-15T01:42:23.986Z,102821.81
2023-02-15T01:44:55.368Z,102820.00
2023-02-15T01:50:02.121Z,102815.59
2023-02-15T01:52:30.998Z,102817.47
2023-02-15T01:55:00.388Z,102825.53
2023-02-15T01:57:29.573Z,102825.59
2023-02-15T02:00:00.051Z,102820.22
2023-02-15T02:02:28.772Z,102822.06
2023-02-15T02:04:59.024Z,102822.06
2023-02-15T02:07:29.489Z,102814.97
2023-02-15T02:09:57.187Z,102811.44
2023-02-15T02:12:27.182Z,102818.59
2023-02-15T02:14:58.193Z,102809.69
2023-02-15T02:17:32.766Z,102806.13
2023-02-15T02:20:18.070Z,102810.63
2023-02-15T02:22:58.605Z,102802.59
2023-02-15T02:25:46.764Z,102806.16
2023-02-15T02:28:25.356Z,102800.81
2023-02-15T02:31:07.738Z,102794.59
2023-02-15T02:33:56.314Z,102794.59
2023-02-15T02:36:27.151Z,102784.78
2023-02-15T02:39:02.933Z,102783.94
2023-02-15T02:41:33.825Z,102780.38
2023-02-15T02:44:06.027Z,102782.19
2023-02-15T02:46:36.597Z,102776.84
2023-02-15T02:49:05.788Z,102781.34
2023-02-15T02:51:33.534Z,102770.63
2023-02-15T02:54:03.180Z,102779.59
2023-02-15T02:56:34.573Z,102777.84
2023-02-15T02:59:04.253Z,102761.78
2023-02-15T03:01:34.546Z,102768.97
2023-02-15T03:04:04.406Z,102758.25
2023-02-15T03:06:38.960Z,102761.88
2023-02-15T03:09:15.446Z,102761.00
2023-02-15T03:11:45.018Z,102762.81
2023-02-15T03:14:13.790Z,102753.00
2023-02-15T03:16:42.956Z,102751.25
2023-02-15T03:19:11.661Z,102753.00
2023-02-15T03:21:44.090Z,102754.81
2023-02-15T03:24:16.314Z,102756.59
2023-02-15T03:26:48.204Z,102746.72
2023-02-15T03:29:17.935Z,102740.47
2023-02-15T03:31:47.917Z,102736.06
2023-02-15T03:34:17.314Z,102738.72
2023-02-15T03:36:49.214Z,102736.06
2023-02-15T03:39:22.026Z,102736.06
2023-02-15T03:41:52.205Z,102733.38
2023-02-15T03:44:26.405Z,102728.94
2023-02-15T03:46:57.025Z,102729.81
2023-02-15T03:49:26.905Z,102722.72
2023-02-15T03:51:57.002Z,102727.22
2023-02-15T03:54:43.377Z,102730.75
2023-02-15T03:57:31.142Z,102723.66
2023-02-15T04:00:16.858Z,102725.44
2023-02-15T04:02:50.993Z,102721.88
2023-02-15T04:05:18.979Z,102712.09
2023-02-15T04:07:48.174Z,102716.59
2023-02-15T04:10:33.276Z,102708.56
2023-02-15T04:13:01.067Z,102709.50
2023-02-15T04:15:46.157Z,102719.28
2023-02-15T04:18:13.882Z,102705.97
2023-02-15T04:20:59.068Z,102714.88
2023-02-15T04:23:45.510Z,102711.38
2023-02-15T04:26:13.234Z,102710.53
2023-02-15T04:28:40.975Z,102706.94
2023-02-15T04:31:08.810Z,102706.22
2023-02-15T04:33:36.823Z,102702.66
2023-02-15T04:36:05.065Z,102702.72
2023-02-15T04:38:34.167Z,102703.63
2023-02-15T04:41:04.702Z,102703.63
2023-02-15T04:43:32.423Z,102708.03
2023-02-15T04:46:00.470Z,102707.06
2023-02-15T04:48:28.344Z,102702.66
2023-02-15T04:50:56.113Z,102706.28
2023-02-15T04:53:23.904Z,102704.47
2023-02-15T04:55:53.084Z,102691.09
2023-02-15T04:58:20.887Z,102700.06
2023-02-15T05:00:48.638Z,102697.41
2023-02-15T05:03:18.033Z,102695.66
2023-02-15T05:05:47.295Z,102697.47
2023-02-15T05:08:15.160Z,102700.19
2023-02-15T05:10:42.952Z,102693.97
2023-02-15T05:13:12.122Z,102697.56
2023-02-15T05:15:39.909Z,102688.66
2023-02-15T05:18:08.261Z,102693.16
2023-02-15T05:20:36.049Z,102688.72
2023-02-15T05:23:06.564Z,102690.47
2023-02-15T05:25:53.906Z,102693.19
2023-02-15T05:28:23.337Z,102689.63
2023-02-15T05:30:51.985Z,102683.41
2023-02-15T05:33:20.044Z,102680.72
2023-02-15T05:35:47.828Z,102675.44
2023-02-15T05:38:15.547Z,102670.94
2023-02-15T05:40:43.311Z,102675.44
2023-02-15T05:43:11.052Z,102669.22
2023-02-15T05:45:40.510Z,102670.97
2023-02-15T05:48:08.506Z,102666.56
2023-02-15T05:50:38.603Z,102672.78
2023-02-15T05:53:06.465Z,102670.16
2023-02-15T05:55:34.212Z,102677.28
2023-02-15T05:58:01.933Z,102672.84
2023-02-15T06:00:29.694Z,102669.31
2023-02-15T06:02:58.774Z,102668.44
2023-02-15T06:05:26.586Z,102668.44
2023-02-15T06:07:54.325Z,102684.50
2023-02-15T06:10:22.114Z,102672.94
2023-02-15T06:12:49.870Z,102674.69
2023-02-15T06:15:17.698Z,102680.97
2023-02-15T06:17:45.462Z,102683.66
2023-02-15T06:20:15.036Z,102675.63
2023-02-15T06:22:42.737Z,102684.59
2023-02-15T06:25:12.262Z,102682.72
2023-02-15T06:27:42.825Z,102685.59
2023-02-15T06:30:11.445Z,102676.25
2023-02-15T06:32:39.221Z,102680.41
2023-02-15T06:35:07.578Z,102684.66
2023-02-15T06:37:36.660Z,102680.06
2023-02-15T06:40:05.035Z,102680.84
2023-02-15T06:42:32.775Z,102687.03
2023-02-15T06:45:01.305Z,102683.47
2023-02-15T06:47:29.123Z,102685.22
2023-02-15T06:49:56.820Z,102681.56
2023-02-15T06:52:24.559Z,102684.22
2023-02-15T06:54:53.682Z,102680.66
2023-02-15T06:57:21.425Z,102685.06
2023-02-15T06:59:49.158Z,102677.03
2023-02-15T07:02:16.841Z,102669.88
2023-02-15T07:04:44.636Z,102667.22
2023-02-15T07:07:13.498Z,102660.91
2023-02-15T07:09:41.241Z,102660.91
2023-02-15T07:12:29.137Z,102656.41
2023-02-15T07:14:56.943Z,102665.31
2023-02-15T07:17:35.347Z,102659.13
2023-02-15T07:20:04.056Z,102657.34
2023-02-15T07:22:31.838Z,102659.13
2023-02-15T07:24:59.693Z,102652.00
2023-02-15T07:27:28.794Z,102649.25
2023-02-15T07:29:56.546Z,102649.25
2023-02-15T07:32:24.381Z,102646.50
2023-02-15T07:34:52.302Z,102636.72
2023-02-15T07:37:20.071Z,102642.06
2023-02-15T07:39:47.768Z,102638.47
2023-02-15T07:42:15.474Z,102640.28
2023-02-15T07:44:44.549Z,102638.47
2023-02-15T07:47:13.030Z,102643.81
2023-02-15T07:49:40.772Z,102640.25
2023-02-15T07:52:08.538Z,102645.56
2023-02-15T07:54:36.271Z,102633.97
2023-02-15T07:57:04.233Z,102635.72
2023-02-15T07:59:32.352Z,102641.03
2023-02-15T08:02:01.518Z,102638.38
2023-02-15T08:04:29.227Z,102633.91
2023-02-15T08:06:57.075Z,102629.56
2023-02-15T08:09:24.761Z,102625.88
2023-02-15T08:11:52.492Z,102621.41
2023-02-15T08:14:21.412Z,102626.72
2023-02-15T08:16:49.774Z,102629.41
2023-02-15T08:19:20.137Z,102620.50
2023-02-15T08:21:52.255Z,102622.31
2023-02-15T08:24:23.250Z,102618.72
2023-02-15T08:26:51.577Z,102622.31
2023-02-15T08:29:20.913Z,102612.47
2023-02-15T08:31:49.137Z,102616.00
2023-02-15T08:34:18.391Z,102602.63
2023-02-15T08:36:47.556Z,102600.81
2023-02-15T08:39:16.350Z,102602.63
2023-02-15T08:41:44.824Z,102594.53
2023-02-15T08:44:15.777Z,102599.00
2023-02-15T08:46:44.178Z,102589.19
2023-02-15T08:49:13.637Z,102590.03
2023-02-15T08:51:41.613Z,102590.03
2023-02-15T08:54:12.258Z,102590.03
2023-02-15T08:56:41.004Z,102593.56
2023-02-15T08:59:09.762Z,102590.91
2023-02-15T09:01:37.612Z,102591.81
2023-02-15T09:04:06.346Z,102592.69
2023-02-15T09:06:34.341Z,102597.97
2023-02-15T09:09:02.166Z,102595.31
2023-02-15T09:11:32.548Z,102594.38
2023-02-15T09:14:01.295Z,102592.59
2023-02-15T09:16:30.258Z,102592.63
2023-02-15T09:18:58.968Z,102591.66
2023-02-15T09:21:27.682Z,102590.66
2023-02-15T09:23:58.011Z,102585.31
2023-02-15T09:26:26.421Z,102581.72
2023-02-15T09:28:56.922Z,102585.22
2023-02-15T09:31:26.147Z,102578.94
2023-02-15T09:33:54.340Z,102586.91
2023-02-15T09:36:23.135Z,102576.22
2023-02-15T09:38:56.066Z,102585.09
2023-02-15T09:41:38.745Z,102593.03
2023-02-15T09:44:13.472Z,102583.22
2023-02-15T09:46:49.966Z,102584.91
2023-02-15T09:49:24.030Z,102580.47
2023-02-15T09:52:06.612Z,102574.25
2023-02-15T09:54:45.140Z,102573.25
2023-02-15T09:57:18.728Z,102577.53
2023-02-15T09:59:53.243Z,102573.03
2023-02-15T10:02:27.247Z,102570.50
2023-02-15T10:05:01.380Z,102573.78
2023-02-15T10:07:45.208Z,102564.72
2023-02-15T10:10:20.790Z,102567.22
2023-02-15T10:12:58.251Z,102573.38
2023-02-15T10:15:39.903Z,102565.25
2023-02-15T10:18:28.605Z,102565.25
2023-02-15T10:21:04.008Z,102566.16
2023-02-15T10:23:49.219Z,102569.66
2023-02-15T10:26:19.693Z,102571.38
2023-02-15T10:28:50.130Z,102566.00
2023-02-15T10:31:24.564Z,102568.63
2023-02-15T10:33:56.605Z,102560.53
2023-02-15T10:36:33.875Z,102568.50
2023-02-15T10:39:05.929Z,102565.84
2023-02-15T10:41:40.574Z,102558.59
2023-02-15T10:44:16.042Z,102562.19
2023-02-15T10:46:56.291Z,102564.78
2023-02-15T10:49:27.380Z,102565.66
2023-02-15T10:52:02.275Z,102565.63
2023-02-15T10:54:35.701Z,102562.00
2023-02-15T10:57:07.182Z,102558.41
2023-02-15T10:59:45.390Z,102549.41
2023-02-15T11:02:19.577Z,102554.78
2023-02-15T11:04:50.429Z,102552.94
2023-02-15T11:07:21.534Z,102558.28
2023-02-15T11:09:51.174Z,102552.00
2023-02-15T11:12:22.194Z,102555.53
2023-02-15T11:14:55.089Z,102552.84
2023-02-15T11:17:26.830Z,102551.94
2023-02-15T11:20:01.571Z,102549.22
2023-02-15T11:22:30.094Z,102554.56
2023-02-15T11:25:00.092Z,102547.34
2023-02-15T11:27:30.043Z,102544.41
2023-02-15T11:30:01.573Z,102545.06
2023-02-15T11:32:32.875Z,102535.75
2023-02-15T11:35:06.297Z,102527.50
2023-02-15T11:37:36.877Z,102532.66
2023-02-15T11:40:14.588Z,102527.94
2023-02-15T11:42:42.868Z,102519.72
2023-02-15T11:45:20.331Z,102519.47
2023-02-15T11:47:49.997Z,102519.38
2023-02-15T11:50:19.890Z,102514.78
2023-02-15T11:52:47.667Z,102504.03
2023-02-15T11:55:19.538Z,102497.63
2023-02-15T11:57:50.533Z,102499.38
2023-02-15T12:00:25.410Z,102493.94
2023-02-15T12:02:56.017Z,102494.78
2023-02-15T12:05:25.811Z,102479.56
2023-02-15T12:07:54.961Z,102483.13
2023-02-15T12:10:25.759Z,102479.56
2023-02-15T12:13:10.294Z,102476.81
2023-02-15T12:15:38.689Z,102471.44
2023-02-15T12:18:19.335Z,102470.47
2023-02-15T12:20:47.504Z,102454.41
2023-02-15T12:23:16.406Z,102449.06
2023-02-15T12:25:44.886Z,102453.47
2023-02-15T12:28:25.675Z,102449.84
2023-02-15T12:30:55.044Z,102442.75
2023-02-15T12:33:28.456Z,102442.72
2023-02-15T12:36:01.882Z,102444.47
2023-02-15T12:38:30.471Z,102437.28
2023-02-15T12:41:03.108Z,102445.31
2023-02-15T12:43:33.911Z,102444.47
2023-02-15T12:46:22.553Z,102439.69
2023-02-15T12:49:07.589Z,102443.03
2023-02-15T12:51:44.989Z,102445.69
2023-02-15T12:54:30.630Z,102435.78
2023-02-15T12:56:59.343Z,102434.81
2023-02-15T12:59:27.132Z,102441.13
2023-02-15T13:01:55.721Z,102437.66
2023-02-15T13:04:27.151Z,102438.41
2023-02-15T13:06:55.712Z,102426.69
2023-02-15T13:09:30.977Z,102419.47
2023-02-15T13:11:59.266Z,102421.13
2023-02-15T13:14:31.187Z,102413.06
2023-02-15T13:17:04.045Z,102410.31
2023-02-15T13:19:36.098Z,102408.47
2023-02-15T13:22:04.887Z,102405.72
2023-02-15T13:24:36.761Z,102408.31
2023-02-15T13:27:15.060Z,102409.22
2023-02-15T13:29:46.086Z,102410.94
2023-02-15T13:32:17.377Z,102411.81
2023-02-15T13:34:49.428Z,102405.47
2023-02-15T13:37:21.378Z,102392.97
2023-02-15T13:39:51.745Z,102386.72
2023-02-15T13:42:27.064Z,102378.66
2023-02-15T13:45:02.194Z,102371.47
2023-02-15T13:47:36.726Z,102363.44
2023-02-15T13:50:18.678Z,102366.97
2023-02-15T13:52:50.005Z,102370.53
2023-02-15T13:55:38.671Z,102365.25
2023-02-15T13:58:24.064Z,102362.03
2023-02-15T14:00:55.008Z,102359.22
2023-02-15T14:03:37.654Z,102369.06
2023-02-15T14:06:16.545Z,102358.31
2023-02-15T14:08:51.307Z,102358.31
2023-02-15T14:11:23.305Z,102353.81
2023-02-15T14:13:59.696Z,102357.28
2023-02-15T14:16:34.862Z,102358.16
2023-02-15T14:19:08.255Z,102358.16
2023-02-15T14:21:41.969Z,102351.84
2023-02-15T14:24:20.319Z,102362.56
2023-02-15T14:26:53.696Z,102350.03
2023-02-15T14:29:25.094Z,102345.53
2023-02-15T14:31:56.074Z,102348.50
2023-02-15T14:34:25.627Z,102350.38
2023-02-15T14:36:55.441Z,102352.25
2023-02-15T14:39:46.707Z,102361.09
2023-02-15T14:42:20.257Z,102359.22
2023-02-15T14:44:51.782Z,102350.19
2023-02-15T14:47:24.218Z,102362.53
2023-02-15T14:49:51.965Z,102365.75
2023-02-15T14:52:21.131Z,102369.97
2023-02-15T14:54:57.176Z,102374.16
2023-02-15T14:57:28.846Z,102379.34
2023-02-15T14:59:58.458Z,102377.41
2023-02-15T15:02:28.003Z,102376.44
2023-02-15T15:05:01.000Z,102373.56
2023-02-15T15:07:38.155Z,102367.25
2023-02-15T15:10:16.925Z,102364.47
2023-02-15T15:12:45.429Z,102370.66
2023-02-15T15:15:14.552Z,102366.19
2023-02-15T15:17:54.462Z,102365.25
2023-02-15T15:20:37.022Z,102366.97
2023-02-15T15:23:20.001Z,102374.13
2023-02-15T15:25:49.884Z,102369.63
2023-02-15T15:28:36.109Z,102371.34
2023-02-15T15:31:07.163Z,102362.38
2023-02-15T15:33:52.707Z,102364.19
2023-02-15T15:36:37.807Z,102360.56
2023-02-15T15:39:14.782Z,102361.44
2023-02-15T15:41:44.887Z,102356.06
2023-02-15T15:44:36.359Z,102354.28
2023-02-15T15:47:19.464Z,102346.19
2023-02-15T15:49:47.898Z,102334.59
2023-02-15T15:52:16.933Z,102339.94
2023-02-15T15:54:45.181Z,102337.28
2023-02-15T15:57:19.837Z,102337.28
2023-02-15T15:59:48.344Z,102330.09
2023-02-15T16:02:17.997Z,102337.19
2023-02-15T16:04:47.030Z,102334.50
2023-02-15T16:07:29.126Z,102332.69
2023-02-15T16:09:57.626Z,102334.50
2023-02-15T16:12:27.118Z,102328.25
2023-02-15T16:14:58.088Z,102333.59
2023-02-15T16:17:27.432Z,102334.47
2023-02-15T16:20:03.399Z,102334.47
2023-02-15T16:22:32.390Z,102340.69
2023-02-15T16:25:15.010Z,102342.44
2023-02-15T16:27:44.697Z,102345.19
2023-02-15T16:30:19.629Z,102338.03
2023-02-15T16:32:47.465Z,102344.25
2023-02-15T16:35:16.354Z,102344.16
2023-02-15T16:37:46.783Z,102345.88
2023-02-15T16:40:27.999Z,102342.13
2023-02-15T16:42:58.273Z,102343.81
2023-02-15T16:45:27.922Z,102340.00
2023-02-15T16:47:58.531Z,102338.94
2023-02-15T16:50:28.192Z,102336.00
2023-02-15T16:52:59.536Z,102330.44
2023-02-15T16:55:27.992Z,102332.13
2023-02-15T16:57:59.991Z,102325.75
2023-02-15T17:00:30.350Z,102331.94
2023-02-15T17:03:00.945Z,102326.56
2023-02-15T17:05:32.635Z,102328.38
2023-02-15T17:08:16.301Z,102331.94
2023-02-15T17:10:46.826Z,102338.16
2023-02-15T17:13:16.385Z,102345.34
2023-02-15T17:15:45.105Z,102346.25
2023-02-15T17:18:17.422Z,102351.59
2023-02-15T17:20:45.968Z,102348.06
2023-02-15T17:23:23.698Z,102353.44
2023-02-15T17:25:52.804Z,102356.19
2023-02-15T17:28:24.254Z,102359.81
2023-02-15T17:30:53.507Z,102358.94
2023-02-15T17:33:22.967Z,102354.50
2023-02-15T17:36:07.464Z,102349.13
2023-02-15T17:38:35.364Z,102348.22
2023-02-15T17:41:05.750Z,102343.75
2023-02-15T17:43:34.806Z,102341.09
2023-02-15T17:46:02.673Z,102347.41
2023-02-15T17:48:32.857Z,102347.41
2023-02-15T17:51:02.643Z,102345.66
2023-02-15T17:53:30.553Z,102349.22
2023-02-15T17:55:57.284Z,102344.78
2023-02-15T17:58:25.340Z,102352.84
2023-02-15T18:01:14.201Z,102346.59
2023-02-15T18:04:01.032Z,102344.78
2023-02-15T18:06:46.282Z,102351.88
2023-02-15T18:09:35.422Z,102358.13
2023-02-15T18:12:03.445Z,102364.34
2023-02-15T18:14:31.753Z,102365.22
2023-02-15T18:17:00.890Z,102358.94
2023-02-15T18:19:28.739Z,102362.63
2023-02-15T18:21:57.997Z,102359.00
2023-02-15T18:24:26.428Z,102359.81
2023-02-15T18:26:54.644Z,102361.63
2023-02-15T18:29:22.670Z,102370.53
2023-02-15T18:31:53.760Z,102367.91
2023-02-15T18:34:25.513Z,102367.97
2023-02-15T18:36:53.501Z,102374.22
2023-02-15T18:39:30.767Z,102371.59
2023-02-15T18:41:58.910Z,102370.72
2023-02-15T18:44:27.186Z,102360.91
2023-02-15T18:46:54.953Z,102360.06
2023-02-15T18:49:24.156Z,102363.59
2023-02-15T18:51:52.127Z,102369.78
2023-02-15T18:54:21.233Z,102376.22
2023-02-15T18:56:53.008Z,102372.66
2023-02-15T18:59:21.080Z,102377.09
2023-02-15T19:01:48.844Z,102376.22
2023-02-15T19:04:17.252Z,102373.59
2023-02-15T19:06:47.177Z,102377.09
2023-02-15T19:09:17.260Z,102375.34
2023-02-15T19:11:47.968Z,102377.13
2023-02-15T19:14:23.960Z,102382.44
2023-02-15T19:16:51.757Z,102379.81
2023-02-15T19:19:19.607Z,102386.94
2023-02-15T19:21:48.708Z,102380.72
2023-02-15T19:24:19.070Z,102380.72
2023-02-15T19:26:47.211Z,102390.53
2023-02-15T19:29:16.071Z,102390.53
2023-02-15T19:31:43.938Z,102396.81
2023-02-15T19:34:16.105Z,102390.53
2023-02-15T19:36:45.499Z,102386.94
2023-02-15T19:39:23.758Z,102383.31
2023-02-15T19:41:51.554Z,102380.63
2023-02-15T19:44:19.372Z,102376.22
2023-02-15T19:46:47.230Z,102378.81
2023-02-15T19:49:14.965Z,102389.53
2023-02-15T19:51:42.662Z,102386.00
2023-02-15T19:54:19.491Z,102379.75
2023-02-15T19:56:48.892Z,102382.44
2023-02-15T19:59:23.027Z,102379.75
2023-02-15T20:01:50.847Z,102374.41
2023-02-15T20:04:18.823Z,102367.31
2023-02-15T20:06:47.038Z,102367.22
2023-02-15T20:09:19.424Z,102359.19
2023-02-15T20:11:51.450Z,102353.81
2023-02-15T20:14:19.486Z,102356.50
2023-02-15T20:16:47.275Z,102353.75
2023-02-15T20:19:15.106Z,102354.66
2023-02-15T20:21:43.675Z,102351.03
2023-02-15T20:24:14.679Z,102357.25
2023-02-15T20:26:42.473Z,102354.50
2023-02-15T20:29:12.828Z,102361.63
2023-02-15T20:31:40.662Z,102361.63
2023-02-15T20:34:08.588Z,102355.34
2023-02-15T20:36:36.468Z,102358.88
2023-02-15T20:39:08.545Z,102361.53
2023-02-15T20:41:39.944Z,102364.22
2023-02-15T20:44:18.661Z,102355.75
2023-02-15T20:46:46.562Z,102358.25
2023-02-15T20:49:16.962Z,102367.09
2023-02-15T20:51:48.112Z,102347.41
2023-02-15T20:54:17.173Z,102356.31
2023-02-15T20:56:45.199Z,102365.09
2023-02-15T20:59:24.814Z,102364.16
2023-02-15T21:01:55.270Z,102366.78
2023-02-15T21:04:28.330Z,102364.97
2023-02-15T21:06:56.469Z,102362.22
2023-02-15T21:09:24.275Z,102366.72
2023-02-15T21:11:52.946Z,102370.25
2023-02-15T21:14:21.975Z,102356.84
2023-02-15T21:16:51.554Z,102357.72
2023-02-15T21:19:20.747Z,102363.09
2023-02-15T21:21:49.092Z,102372.81
2023-02-15T21:24:18.087Z,102367.44
2023-02-15T21:26:46.691Z,102352.22
2023-02-15T21:29:16.091Z,102353.19
2023-02-15T21:31:44.097Z,102353.09
2023-02-15T21:34:13.271Z,102362.00
2023-02-15T21:36:41.709Z,102361.09
2023-02-15T21:39:15.519Z,102360.22
2023-02-15T21:42:02.202Z,102355.72
2023-02-15T21:44:49.986Z,102356.59
2023-02-15T21:47:36.833Z,102360.16
2023-02-15T21:50:27.385Z,102362.75
2023-02-15T21:52:54.632Z,102363.63
2023-02-15T21:55:22.312Z,102361.88
2023-02-15T21:57:50.063Z,102364.56
2023-02-15T22:00:18.930Z,102363.63
2023-02-15T22:02:48.067Z,102360.91
2023-02-15T22:05:18.614Z,102357.38
2023-02-15T22:07:48.672Z,102354.03
2023-02-15T22:10:16.497Z,102358.53
2023-02-15T22:12:44.574Z,102360.34
2023-02-15T22:15:18.694Z,102361.22
2023-02-15T22:17:46.357Z,102370.06
2023-02-15T22:20:15.231Z,102359.34
2023-02-15T22:22:44.354Z,102363.81
2023-02-15T22:25:14.632Z,102366.59
2023-02-15T22:27:43.377Z,102363.91
2023-02-15T22:30:18.898Z,102360.34
2023-02-15T22:32:46.758Z,102363.03
2023-02-15T22:35:17.384Z,102358.63
2023-02-15T22:37:46.487Z,102363.97
2023-02-15T22:40:15.216Z,102368.44
2023-02-15T22:42:43.292Z,102372.03
2023-02-15T22:45:17.120Z,102362.22
2023-02-15T22:47:45.387Z,102370.25
2023-02-15T22:50:18.419Z,102364.09
2023-02-15T22:52:47.425Z,102359.59
2023-02-15T22:55:16.189Z,102362.34
2023-02-15T22:57:44.345Z,102354.28
2023-02-15T23:00:16.181Z,102349.00
2023-02-15T23:02:43.988Z,102355.25
2023-02-15T23:05:17.284Z,102350.81
2023-02-15T23:07:45.120Z,102350.00
2023-02-15T23:10:22.176Z,102358.88
2023-02-15T23:13:07.811Z,102357.13
2023-02-15T23:15:36.217Z,102354.50
2023-02-15T23:18:14.189Z,102359.84
2023-02-15T23:20:41.906Z,102359.00
2023-02-15T23:23:10.209Z,102362.63
2023-02-15T23:25:39.311Z,102351.88
2023-02-15T23:28:13.439Z,102356.38
2023-02-15T23:30:41.220Z,102351.88
2023-02-15T23:33:11.947Z,102351.03
2023-02-15T23:35:39.660Z,102355.50
2023-02-15T23:38:13.334Z,102356.44
2023-02-15T23:40:59.882Z,102351.88
2023-02-15T23:43:27.664Z,102352.00
2023-02-15T23:45:55.460Z,102351.16
2023-02-15T23:48:33.298Z,102359.25
2023-02-15T23:51:01.334Z,102353.06
2023-02-15T23:53:29.267Z,102346.94
2023-02-15T23:55:58.927Z,102344.25
2023-02-15T23:58:29.757Z,102344.28
